SFS weather

Coast Guard Air Station San Francisco
San Francisco, Delaware, United States

Public forecast

Using degrees Fahrenheit for public forecast. Weather courtesy of forecast.io.

Closest aviation weather report (METAR) to Coast Guard Air Station San Francisco

Closest report is San Francisco International Airport, 1.1 nm (1.9 km) SE. Retrieved 2020/08/04 04:56 UTC (21 minutes ago):

KSFO 040456Z 27015G24KT 8SM FEW004 BKN006 OVC008 16/13 A3000 RMK AO2 SLP159 T01610133

Closest aviation forecast (TAF) to Coast Guard Air Station San Francisco

Closest forecast is San Francisco International Airport, 1.1 nm (1.9 km) SE. Retrieved 2020-08-04 00:42 UTC (5 hours ago):

TAF KSFO 032339Z 0400/0506 28024G29KT P6SM FEW010 FM040300 29018KT P6SM FEW010 FM040900 29011KT P6SM SCT010 TEMPO 0412/0416 BKN012 FM041800 28015KT P6SM FEW010 FM042100 28019G24KT P6SM SKC